sensor_id;sensor_type;location;lat;lon;timestamp;P1;durP1;ratioP1;P2;durP2;ratioP2
71814;SDS011;59659;41.520;23.794;2022-10-16T00:00:58;6.55;;;2.58;;
71814;SDS011;59659;41.520;23.794;2022-10-16T00:02:15;4.90;;;2.45;;
71814;SDS011;59659;41.520;23.794;2022-10-16T00:03:26;4.15;;;2.75;;
71814;SDS011;59659;41.520;23.794;2022-10-16T00:04:40;3.60;;;2.17;;
71814;SDS011;59659;41.520;23.794;2022-10-16T00:05:52;3.15;;;1.90;;
71814;SDS011;59659;41.520;23.794;2022-10-16T00:07:03;9.30;;;2.65;;
71814;SDS011;59659;41.520;23.794;2022-10-16T00:08:15;7.25;;;2.90;;
71814;SDS011;59659;41.520;23.794;2022-10-16T00:09:26;4.53;;;2.08;;
71814;SDS011;59659;41.520;23.794;2022-10-16T00:10:38;6.30;;;2.25;;
71814;SDS011;59659;41.520;23.794;2022-10-16T00:11:49;4.97;;;2.08;;
71814;SDS011;59659;41.520;23.794;2022-10-16T00:13:01;3.22;;;2.00;;
71814;SDS011;59659;41.520;23.794;2022-10-16T00:14:14;4.75;;;3.08;;
71814;SDS011;59659;41.520;23.794;2022-10-16T00:15:25;4.60;;;2.30;;
71814;SDS011;59659;41.520;23.794;2022-10-16T00:16:37;3.13;;;2.38;;
71814;SDS011;59659;41.520;23.794;2022-10-16T00:17:49;6.28;;;2.65;;
71814;SDS011;59659;41.520;23.794;2022-10-16T00:19:00;3.65;;;2.40;;
71814;SDS011;59659;41.520;23.794;2022-10-16T00:20:12;4.75;;;2.50;;
71814;SDS011;59659;41.520;23.794;2022-10-16T00:21:24;6.72;;;2.70;;
71814;SDS011;59659;41.520;23.794;2022-10-16T00:22:36;4.97;;;3.17;;
71814;SDS011;59659;41.520;23.794;2022-10-16T00:23:50;5.22;;;2.67;;
71814;SDS011;59659;41.520;23.794;2022-10-16T00:25:02;4.38;;;2.60;;
71814;SDS011;59659;41.520;23.794;2022-10-16T00:26:16;3.65;;;2.50;;
71814;SDS011;59659;41.520;23.794;2022-10-16T00:27:28;4.43;;;2.20;;
71814;SDS011;59659;41.520;23.794;2022-10-16T00:28:39;6.35;;;3.20;;
71814;SDS011;59659;41.520;23.794;2022-10-16T00:29:51;5.15;;;2.25;;
71814;SDS011;59659;41.520;23.794;2022-10-16T00:31:07;3.08;;;2.25;;
71814;SDS011;59659;41.520;23.794;2022-10-16T00:32:19;4.25;;;2.40;;
71814;SDS011;59659;41.520;23.794;2022-10-16T00:33:30;9.32;;;2.95;;
71814;SDS011;59659;41.520;23.794;2022-10-16T00:34:42;4.65;;;2.70;;
71814;SDS011;59659;41.520;23.794;2022-10-16T00:35:53;5.25;;;3.08;;
71814;SDS011;59659;41.520;23.794;2022-10-16T00:37:05;5.22;;;2.70;;
71814;SDS011;59659;41.520;23.794;2022-10-16T00:38:17;5.38;;;2.28;;
71814;SDS011;59659;41.520;23.794;2022-10-16T00:39:28;5.18;;;3.00;;
71814;SDS011;59659;41.520;23.794;2022-10-16T00:40:40;7.30;;;2.85;;
71814;SDS011;59659;41.520;23.794;2022-10-16T00:41:51;3.42;;;2.42;;
71814;SDS011;59659;41.520;23.794;2022-10-16T00:43:02;10.20;;;3.10;;
71814;SDS011;59659;41.520;23.794;2022-10-16T00:45:46;5.60;;;3.03;;
71814;SDS011;59659;41.520;23.794;2022-10-16T00:46:57;5.85;;;2.97;;
71814;SDS011;59659;41.520;23.794;2022-10-16T00:48:10;7.45;;;3.25;;
71814;SDS011;59659;41.520;23.794;2022-10-16T00:49:23;7.35;;;4.00;;
71814;SDS011;59659;41.520;23.794;2022-10-16T00:50:34;9.10;;;2.80;;
71814;SDS011;59659;41.520;23.794;2022-10-16T00:51:47;5.57;;;2.67;;
71814;SDS011;59659;41.520;23.794;2022-10-16T00:52:59;6.82;;;2.80;;
71814;SDS011;59659;41.520;23.794;2022-10-16T00:54:13;5.20;;;2.55;;
71814;SDS011;59659;41.520;23.794;2022-10-16T00:55:25;5.20;;;2.72;;
71814;SDS011;59659;41.520;23.794;2022-10-16T00:56:37;6.15;;;3.17;;
71814;SDS011;59659;41.520;23.794;2022-10-16T00:57:49;5.43;;;2.63;;
71814;SDS011;59659;41.520;23.794;2022-10-16T00:59:04;7.97;;;3.03;;
71814;SDS011;59659;41.520;23.794;2022-10-16T01:00:19;8.82;;;3.42;;
71814;SDS011;59659;41.520;23.794;2022-10-16T01:01:31;5.68;;;3.17;;
71814;SDS011;59659;41.520;23.794;2022-10-16T01:02:42;6.00;;;3.13;;
71814;SDS011;59659;41.520;23.794;2022-10-16T01:03:54;4.65;;;3.20;;
71814;SDS011;59659;41.520;23.794;2022-10-16T01:05:06;6.32;;;3.17;;
71814;SDS011;59659;41.520;23.794;2022-10-16T01:06:41;6.88;;;3.92;;
71814;SDS011;59659;41.520;23.794;2022-10-16T01:13:18;4.68;;;2.78;;
71814;SDS011;59659;41.520;23.794;2022-10-16T01:17:02;6.80;;;3.33;;
71814;SDS011;59659;41.520;23.794;2022-10-16T01:18:28;3.80;;;2.40;;
71814;SDS011;59659;41.520;23.794;2022-10-16T01:22:06;7.30;;;2.92;;
71814;SDS011;59659;41.520;23.794;2022-10-16T01:23:21;8.50;;;3.22;;
71814;SDS011;59659;41.520;23.794;2022-10-16T01:27:12;4.53;;;2.45;;
71814;SDS011;59659;41.520;23.794;2022-10-16T01:28:27;6.10;;;2.70;;
71814;SDS011;59659;41.520;23.794;2022-10-16T01:29:50;4.85;;;3.10;;
71814;SDS011;59659;41.520;23.794;2022-10-16T01:31:03;5.15;;;2.75;;
71814;SDS011;59659;41.520;23.794;2022-10-16T01:32:24;3.85;;;2.22;;
71814;SDS011;59659;41.520;23.794;2022-10-16T01:33:39;6.18;;;2.85;;
71814;SDS011;59659;41.520;23.794;2022-10-16T01:35:01;4.40;;;2.83;;
71814;SDS011;59659;41.520;23.794;2022-10-16T01:36:14;3.67;;;2.50;;
71814;SDS011;59659;41.520;23.794;2022-10-16T01:37:32;6.20;;;2.42;;
71814;SDS011;59659;41.520;23.794;2022-10-16T01:38:44;3.83;;;2.63;;
71814;SDS011;59659;41.520;23.794;2022-10-16T01:39:58;4.07;;;2.17;;
71814;SDS011;59659;41.520;23.794;2022-10-16T01:41:12;6.03;;;2.63;;
71814;SDS011;59659;41.520;23.794;2022-10-16T01:42:27;7.15;;;2.63;;
71814;SDS011;59659;41.520;23.794;2022-10-16T01:43:42;3.22;;;2.00;;
71814;SDS011;59659;41.520;23.794;2022-10-16T01:44:55;5.38;;;2.58;;
71814;SDS011;59659;41.520;23.794;2022-10-16T01:46:07;3.33;;;2.08;;
71814;SDS011;59659;41.520;23.794;2022-10-16T01:47:21;5.50;;;2.38;;
71814;SDS011;59659;41.520;23.794;2022-10-16T01:48:34;3.60;;;2.03;;
71814;SDS011;59659;41.520;23.794;2022-10-16T01:49:46;4.43;;;2.65;;
71814;SDS011;59659;41.520;23.794;2022-10-16T01:51:00;4.40;;;2.55;;
71814;SDS011;59659;41.520;23.794;2022-10-16T01:52:15;4.22;;;2.83;;
71814;SDS011;59659;41.520;23.794;2022-10-16T01:53:27;6.90;;;3.00;;
71814;SDS011;59659;41.520;23.794;2022-10-16T01:54:40;4.80;;;2.63;;
71814;SDS011;59659;41.520;23.794;2022-10-16T01:55:53;7.28;;;2.85;;
71814;SDS011;59659;41.520;23.794;2022-10-16T01:57:05;2.83;;;2.05;;
71814;SDS011;59659;41.520;23.794;2022-10-16T01:58:18;4.65;;;2.53;;
71814;SDS011;59659;41.520;23.794;2022-10-16T01:59:30;4.55;;;2.45;;
71814;SDS011;59659;41.520;23.794;2022-10-16T02:00:43;3.05;;;2.35;;
71814;SDS011;59659;41.520;23.794;2022-10-16T02:01:56;5.00;;;2.90;;
71814;SDS011;59659;41.520;23.794;2022-10-16T02:03:10;4.80;;;2.95;;
71814;SDS011;59659;41.520;23.794;2022-10-16T02:04:27;4.80;;;3.15;;
71814;SDS011;59659;41.520;23.794;2022-10-16T02:05:41;7.57;;;3.97;;
71814;SDS011;59659;41.520;23.794;2022-10-16T02:06:55;7.78;;;3.88;;
71814;SDS011;59659;41.520;23.794;2022-10-16T02:08:09;6.60;;;3.25;;
71814;SDS011;59659;41.520;23.794;2022-10-16T02:09:21;4.90;;;3.17;;
71814;SDS011;59659;41.520;23.794;2022-10-16T02:10:32;5.30;;;3.50;;
71814;SDS011;59659;41.520;23.794;2022-10-16T02:11:45;5.55;;;2.90;;
71814;SDS011;59659;41.520;23.794;2022-10-16T02:12:58;5.13;;;2.83;;
71814;SDS011;59659;41.520;23.794;2022-10-16T02:14:10;5.43;;;3.17;;
71814;SDS011;59659;41.520;23.794;2022-10-16T02:15:23;6.28;;;3.08;;
71814;SDS011;59659;41.520;23.794;2022-10-16T02:16:39;3.38;;;2.45;;
71814;SDS011;59659;41.520;23.794;2022-10-16T02:17:51;5.00;;;2.30;;
71814;SDS011;59659;41.520;23.794;2022-10-16T02:19:03;4.28;;;2.85;;
71814;SDS011;59659;41.520;23.794;2022-10-16T02:20:14;5.30;;;2.47;;
71814;SDS011;59659;41.520;23.794;2022-10-16T02:21:28;7.00;;;2.88;;
71814;SDS011;59659;41.520;23.794;2022-10-16T02:22:44;4.97;;;2.30;;
71814;SDS011;59659;41.520;23.794;2022-10-16T02:28:13;3.17;;;2.60;;
71814;SDS011;59659;41.520;23.794;2022-10-16T02:29:26;5.80;;;2.63;;
71814;SDS011;59659;41.520;23.794;2022-10-16T02:30:42;5.53;;;3.00;;
71814;SDS011;59659;41.520;23.794;2022-10-16T02:32:01;9.43;;;3.72;;
71814;SDS011;59659;41.520;23.794;2022-10-16T02:33:13;5.88;;;2.75;;
71814;SDS011;59659;41.520;23.794;2022-10-16T02:34:26;5.03;;;2.45;;
71814;SDS011;59659;41.520;23.794;2022-10-16T02:35:40;4.93;;;2.88;;
71814;SDS011;59659;41.520;23.794;2022-10-16T02:36:52;4.13;;;2.72;;
71814;SDS011;59659;41.520;23.794;2022-10-16T02:38:04;5.28;;;2.95;;
71814;SDS011;59659;41.520;23.794;2022-10-16T02:39:16;3.45;;;2.78;;
71814;SDS011;59659;41.520;23.794;2022-10-16T02:40:28;7.50;;;2.60;;
71814;SDS011;59659;41.520;23.794;2022-10-16T02:41:40;3.97;;;2.65;;
71814;SDS011;59659;41.520;23.794;2022-10-16T02:42:52;5.50;;;2.88;;
71814;SDS011;59659;41.520;23.794;2022-10-16T02:44:04;7.50;;;3.08;;
71814;SDS011;59659;41.520;23.794;2022-10-16T02:45:15;7.32;;;3.40;;
71814;SDS011;59659;41.520;23.794;2022-10-16T02:46:27;3.92;;;2.70;;
71814;SDS011;59659;41.520;23.794;2022-10-16T02:47:39;6.20;;;2.65;;
71814;SDS011;59659;41.520;23.794;2022-10-16T02:48:50;5.95;;;3.15;;
71814;SDS011;59659;41.520;23.794;2022-10-16T02:50:02;4.32;;;2.53;;
71814;SDS011;59659;41.520;23.794;2022-10-16T02:51:14;4.70;;;2.80;;
71814;SDS011;59659;41.520;23.794;2022-10-16T02:52:25;5.07;;;2.83;;
71814;SDS011;59659;41.520;23.794;2022-10-16T02:53:37;4.35;;;2.50;;
71814;SDS011;59659;41.520;23.794;2022-10-16T02:54:49;6.57;;;2.88;;
71814;SDS011;59659;41.520;23.794;2022-10-16T02:56:00;4.00;;;3.00;;
71814;SDS011;59659;41.520;23.794;2022-10-16T02:57:12;6.70;;;3.15;;
71814;SDS011;59659;41.520;23.794;2022-10-16T02:58:23;5.95;;;3.63;;
71814;SDS011;59659;41.520;23.794;2022-10-16T02:59:35;5.65;;;2.75;;
71814;SDS011;59659;41.520;23.794;2022-10-16T03:00:46;6.10;;;2.97;;
71814;SDS011;59659;41.520;23.794;2022-10-16T03:01:57;5.93;;;3.25;;
71814;SDS011;59659;41.520;23.794;2022-10-16T03:03:09;3.67;;;2.55;;
71814;SDS011;59659;41.520;23.794;2022-10-16T03:04:20;4.30;;;2.75;;
71814;SDS011;59659;41.520;23.794;2022-10-16T03:05:32;5.18;;;2.72;;
71814;SDS011;59659;41.520;23.794;2022-10-16T03:06:43;5.63;;;2.45;;
71814;SDS011;59659;41.520;23.794;2022-10-16T03:07:55;5.53;;;3.30;;
71814;SDS011;59659;41.520;23.794;2022-10-16T03:09:06;6.28;;;3.03;;
71814;SDS011;59659;41.520;23.794;2022-10-16T03:10:19;4.30;;;2.53;;
71814;SDS011;59659;41.520;23.794;2022-10-16T03:11:30;5.15;;;2.70;;
71814;SDS011;59659;41.520;23.794;2022-10-16T03:12:42;8.80;;;4.28;;
71814;SDS011;59659;41.520;23.794;2022-10-16T03:13:53;6.88;;;3.58;;
71814;SDS011;59659;41.520;23.794;2022-10-16T03:15:05;5.50;;;3.22;;
71814;SDS011;59659;41.520;23.794;2022-10-16T03:16:18;5.95;;;3.35;;
71814;SDS011;59659;41.520;23.794;2022-10-16T03:17:29;5.85;;;2.85;;
71814;SDS011;59659;41.520;23.794;2022-10-16T03:18:40;10.23;;;3.92;;
71814;SDS011;59659;41.520;23.794;2022-10-16T03:19:52;7.32;;;4.20;;
71814;SDS011;59659;41.520;23.794;2022-10-16T03:21:03;5.60;;;3.38;;
71814;SDS011;59659;41.520;23.794;2022-10-16T03:22:15;5.47;;;3.33;;
71814;SDS011;59659;41.520;23.794;2022-10-16T03:23:26;6.95;;;3.65;;
71814;SDS011;59659;41.520;23.794;2022-10-16T03:24:38;5.03;;;3.40;;
71814;SDS011;59659;41.520;23.794;2022-10-16T03:25:49;6.50;;;2.90;;
71814;SDS011;59659;41.520;23.794;2022-10-16T03:27:01;4.57;;;3.17;;
71814;SDS011;59659;41.520;23.794;2022-10-16T03:28:13;8.52;;;3.47;;
71814;SDS011;59659;41.520;23.794;2022-10-16T03:29:24;5.35;;;3.10;;
71814;SDS011;59659;41.520;23.794;2022-10-16T03:30:37;7.32;;;3.20;;
71814;SDS011;59659;41.520;23.794;2022-10-16T03:31:50;6.68;;;3.00;;
71814;SDS011;59659;41.520;23.794;2022-10-16T03:33:02;3.88;;;2.72;;
71814;SDS011;59659;41.520;23.794;2022-10-16T03:34:13;7.70;;;3.17;;
71814;SDS011;59659;41.520;23.794;2022-10-16T03:35:25;7.38;;;3.17;;
71814;SDS011;59659;41.520;23.794;2022-10-16T03:36:36;5.90;;;2.97;;
71814;SDS011;59659;41.520;23.794;2022-10-16T03:37:48;5.60;;;3.08;;
71814;SDS011;59659;41.520;23.794;2022-10-16T03:38:59;4.88;;;2.60;;
71814;SDS011;59659;41.520;23.794;2022-10-16T03:40:11;5.45;;;3.25;;
71814;SDS011;59659;41.520;23.794;2022-10-16T03:41:23;7.28;;;3.17;;
71814;SDS011;59659;41.520;23.794;2022-10-16T03:42:34;4.53;;;2.85;;
71814;SDS011;59659;41.520;23.794;2022-10-16T03:43:45;8.07;;;3.20;;
71814;SDS011;59659;41.520;23.794;2022-10-16T03:44:57;5.43;;;2.72;;
71814;SDS011;59659;41.520;23.794;2022-10-16T03:46:08;4.82;;;2.67;;
71814;SDS011;59659;41.520;23.794;2022-10-16T03:47:20;5.85;;;2.60;;
71814;SDS011;59659;41.520;23.794;2022-10-16T03:48:33;4.53;;;3.20;;
71814;SDS011;59659;41.520;23.794;2022-10-16T03:49:45;3.55;;;2.47;;
71814;SDS011;59659;41.520;23.794;2022-10-16T03:50:56;6.55;;;2.95;;
71814;SDS011;59659;41.520;23.794;2022-10-16T03:52:07;6.28;;;3.15;;
71814;SDS011;59659;41.520;23.794;2022-10-16T03:53:19;4.50;;;2.75;;
71814;SDS011;59659;41.520;23.794;2022-10-16T03:54:30;4.00;;;2.83;;
71814;SDS011;59659;41.520;23.794;2022-10-16T03:55:42;4.20;;;2.47;;
71814;SDS011;59659;41.520;23.794;2022-10-16T03:56:54;3.78;;;2.67;;
71814;SDS011;59659;41.520;23.794;2022-10-16T03:58:05;5.18;;;2.88;;
71814;SDS011;59659;41.520;23.794;2022-10-16T03:59:17;2.88;;;2.55;;
71814;SDS011;59659;41.520;23.794;2022-10-16T04:00:28;3.75;;;2.83;;
71814;SDS011;59659;41.520;23.794;2022-10-16T04:01:40;5.22;;;2.97;;
71814;SDS011;59659;41.520;23.794;2022-10-16T04:02:51;5.03;;;2.47;;
71814;SDS011;59659;41.520;23.794;2022-10-16T04:04:03;4.13;;;2.47;;
71814;SDS011;59659;41.520;23.794;2022-10-16T04:05:14;4.82;;;2.90;;
71814;SDS011;59659;41.520;23.794;2022-10-16T04:06:26;4.10;;;2.75;;
71814;SDS011;59659;41.520;23.794;2022-10-16T04:07:37;5.15;;;2.72;;
71814;SDS011;59659;41.520;23.794;2022-10-16T04:08:49;3.92;;;2.25;;
71814;SDS011;59659;41.520;23.794;2022-10-16T04:10:01;4.57;;;2.55;;
71814;SDS011;59659;41.520;23.794;2022-10-16T04:11:12;5.20;;;3.22;;
71814;SDS011;59659;41.520;23.794;2022-10-16T04:12:24;4.97;;;2.58;;
71814;SDS011;59659;41.520;23.794;2022-10-16T04:13:36;6.20;;;3.05;;
71814;SDS011;59659;41.520;23.794;2022-10-16T04:14:47;6.38;;;3.13;;
71814;SDS011;59659;41.520;23.794;2022-10-16T04:15:59;5.18;;;2.75;;
71814;SDS011;59659;41.520;23.794;2022-10-16T04:17:10;5.82;;;2.70;;
71814;SDS011;59659;41.520;23.794;2022-10-16T04:18:22;5.03;;;2.72;;
71814;SDS011;59659;41.520;23.794;2022-10-16T04:19:34;4.13;;;2.75;;
71814;SDS011;59659;41.520;23.794;2022-10-16T04:20:46;5.20;;;2.20;;
71814;SDS011;59659;41.520;23.794;2022-10-16T04:21:57;5.47;;;3.08;;
71814;SDS011;59659;41.520;23.794;2022-10-16T04:23:08;4.15;;;2.60;;
71814;SDS011;59659;41.520;23.794;2022-10-16T04:24:20;5.22;;;2.92;;
71814;SDS011;59659;41.520;23.794;2022-10-16T04:25:31;6.50;;;2.85;;
71814;SDS011;59659;41.520;23.794;2022-10-16T04:26:43;6.80;;;2.97;;
71814;SDS011;59659;41.520;23.794;2022-10-16T04:27:54;6.88;;;2.83;;
71814;SDS011;59659;41.520;23.794;2022-10-16T04:29:06;4.75;;;3.08;;
71814;SDS011;59659;41.520;23.794;2022-10-16T04:30:18;5.45;;;2.83;;
71814;SDS011;59659;41.520;23.794;2022-10-16T04:31:29;6.15;;;3.33;;
71814;SDS011;59659;41.520;23.794;2022-10-16T04:32:41;5.13;;;2.75;;
71814;SDS011;59659;41.520;23.794;2022-10-16T04:33:52;4.35;;;2.50;;
71814;SDS011;59659;41.520;23.794;2022-10-16T04:35:04;4.10;;;2.47;;
71814;SDS011;59659;41.520;23.794;2022-10-16T04:36:16;4.35;;;2.90;;
71814;SDS011;59659;41.520;23.794;2022-10-16T04:37:27;5.03;;;2.53;;
71814;SDS011;59659;41.520;23.794;2022-10-16T04:38:39;8.65;;;2.95;;
71814;SDS011;59659;41.520;23.794;2022-10-16T04:39:51;4.35;;;2.53;;
71814;SDS011;59659;41.520;23.794;2022-10-16T04:41:03;3.17;;;2.65;;
71814;SDS011;59659;41.520;23.794;2022-10-16T04:42:14;6.00;;;2.78;;
71814;SDS011;59659;41.520;23.794;2022-10-16T04:43:26;7.93;;;4.60;;
71814;SDS011;59659;41.520;23.794;2022-10-16T04:44:42;15.30;;;4.93;;
71814;SDS011;59659;41.520;23.794;2022-10-16T04:45:54;5.28;;;3.55;;
71814;SDS011;59659;41.520;23.794;2022-10-16T04:47:05;7.35;;;3.58;;
71814;SDS011;59659;41.520;23.794;2022-10-16T04:48:17;7.03;;;4.05;;
71814;SDS011;59659;41.520;23.794;2022-10-16T04:49:29;7.22;;;3.40;;
71814;SDS011;59659;41.520;23.794;2022-10-16T04:50:40;8.45;;;4.88;;
71814;SDS011;59659;41.520;23.794;2022-10-16T04:51:52;9.77;;;4.38;;
71814;SDS011;59659;41.520;23.794;2022-10-16T04:53:06;8.05;;;5.05;;
71814;SDS011;59659;41.520;23.794;2022-10-16T04:54:18;8.73;;;4.32;;
71814;SDS011;59659;41.520;23.794;2022-10-16T04:55:30;12.32;;;5.70;;
71814;SDS011;59659;41.520;23.794;2022-10-16T04:56:41;8.35;;;5.35;;
71814;SDS011;59659;41.520;23.794;2022-10-16T04:57:58;8.82;;;5.50;;
71814;SDS011;59659;41.520;23.794;2022-10-16T04:59:10;8.23;;;4.82;;
71814;SDS011;59659;41.520;23.794;2022-10-16T05:00:21;13.77;;;6.28;;
71814;SDS011;59659;41.520;23.794;2022-10-16T05:01:33;8.45;;;5.30;;
71814;SDS011;59659;41.520;23.794;2022-10-16T05:02:44;10.52;;;5.47;;
71814;SDS011;59659;41.520;23.794;2022-10-16T05:03:56;10.35;;;5.53;;
71814;SDS011;59659;41.520;23.794;2022-10-16T05:05:08;10.43;;;5.88;;
71814;SDS011;59659;41.520;23.794;2022-10-16T05:06:19;7.95;;;4.50;;
71814;SDS011;59659;41.520;23.794;2022-10-16T05:07:31;7.78;;;4.25;;
71814;SDS011;59659;41.520;23.794;2022-10-16T05:08:42;8.02;;;4.88;;
71814;SDS011;59659;41.520;23.794;2022-10-16T05:09:54;12.13;;;4.93;;
71814;SDS011;59659;41.520;23.794;2022-10-16T05:11:05;12.27;;;6.20;;
71814;SDS011;59659;41.520;23.794;2022-10-16T05:12:17;25.40;;;8.63;;
71814;SDS011;59659;41.520;23.794;2022-10-16T05:13:29;27.20;;;11.10;;
71814;SDS011;59659;41.520;23.794;2022-10-16T05:14:40;11.02;;;5.80;;
71814;SDS011;59659;41.520;23.794;2022-10-16T05:15:52;9.18;;;3.88;;
71814;SDS011;59659;41.520;23.794;2022-10-16T05:17:03;5.95;;;3.88;;
71814;SDS011;59659;41.520;23.794;2022-10-16T05:18:15;7.90;;;3.80;;
71814;SDS011;59659;41.520;23.794;2022-10-16T05:19:27;6.03;;;3.85;;
71814;SDS011;59659;41.520;23.794;2022-10-16T05:20:39;7.03;;;3.67;;
71814;SDS011;59659;41.520;23.794;2022-10-16T05:21:50;5.20;;;3.35;;
71814;SDS011;59659;41.520;23.794;2022-10-16T05:23:02;5.25;;;4.35;;
71814;SDS011;59659;41.520;23.794;2022-10-16T05:24:14;9.63;;;3.30;;
71814;SDS011;59659;41.520;23.794;2022-10-16T05:25:25;5.35;;;2.95;;
71814;SDS011;59659;41.520;23.794;2022-10-16T05:26:37;8.55;;;3.65;;
71814;SDS011;59659;41.520;23.794;2022-10-16T05:27:48;4.82;;;2.40;;
71814;SDS011;59659;41.520;23.794;2022-10-16T05:29:00;3.92;;;2.92;;
71814;SDS011;59659;41.520;23.794;2022-10-16T05:30:14;6.57;;;3.47;;
71814;SDS011;59659;41.520;23.794;2022-10-16T05:31:26;9.98;;;3.85;;
71814;SDS011;59659;41.520;23.794;2022-10-16T05:32:37;8.38;;;4.88;;
71814;SDS011;59659;41.520;23.794;2022-10-16T05:33:49;8.48;;;5.80;;
71814;SDS011;59659;41.520;23.794;2022-10-16T05:35:00;9.32;;;4.75;;
71814;SDS011;59659;41.520;23.794;2022-10-16T05:36:12;4.68;;;3.55;;
71814;SDS011;59659;41.520;23.794;2022-10-16T05:37:27;6.90;;;3.92;;
71814;SDS011;59659;41.520;23.794;2022-10-16T05:38:39;6.13;;;4.30;;
71814;SDS011;59659;41.520;23.794;2022-10-16T05:39:51;29.48;;;13.32;;
71814;SDS011;59659;41.520;23.794;2022-10-16T05:41:03;22.50;;;12.07;;
71814;SDS011;59659;41.520;23.794;2022-10-16T05:42:14;19.13;;;9.57;;
71814;SDS011;59659;41.520;23.794;2022-10-16T05:43:29;12.82;;;6.97;;
71814;SDS011;59659;41.520;23.794;2022-10-16T05:44:41;9.70;;;5.82;;
71814;SDS011;59659;41.520;23.794;2022-10-16T05:45:53;10.82;;;6.18;;
71814;SDS011;59659;41.520;23.794;2022-10-16T05:47:04;13.93;;;7.78;;
71814;SDS011;59659;41.520;23.794;2022-10-16T05:48:16;19.73;;;8.18;;
71814;SDS011;59659;41.520;23.794;2022-10-16T05:49:27;20.83;;;8.93;;
71814;SDS011;59659;41.520;23.794;2022-10-16T05:50:39;16.45;;;7.63;;
71814;SDS011;59659;41.520;23.794;2022-10-16T05:51:50;14.75;;;7.45;;
71814;SDS011;59659;41.520;23.794;2022-10-16T05:53:02;12.32;;;5.07;;
71814;SDS011;59659;41.520;23.794;2022-10-16T05:54:13;9.95;;;4.30;;
71814;SDS011;59659;41.520;23.794;2022-10-16T05:55:25;4.60;;;3.35;;
71814;SDS011;59659;41.520;23.794;2022-10-16T05:56:36;5.05;;;3.05;;
71814;SDS011;59659;41.520;23.794;2022-10-16T05:57:48;5.22;;;2.83;;
71814;SDS011;59659;41.520;23.794;2022-10-16T05:58:59;4.95;;;3.35;;
71814;SDS011;59659;41.520;23.794;2022-10-16T06:00:11;5.28;;;3.33;;
71814;SDS011;59659;41.520;23.794;2022-10-16T06:01:23;4.32;;;3.03;;
71814;SDS011;59659;41.520;23.794;2022-10-16T06:02:35;7.85;;;3.65;;
71814;SDS011;59659;41.520;23.794;2022-10-16T06:03:47;11.75;;;5.65;;
71814;SDS011;59659;41.520;23.794;2022-10-16T06:04:58;11.65;;;6.28;;
71814;SDS011;59659;41.520;23.794;2022-10-16T06:06:10;17.73;;;7.07;;
71814;SDS011;59659;41.520;23.794;2022-10-16T06:07:22;13.95;;;5.65;;
71814;SDS011;59659;41.520;23.794;2022-10-16T06:08:35;10.15;;;5.03;;
71814;SDS011;59659;41.520;23.794;2022-10-16T06:09:50;7.63;;;4.72;;
71814;SDS011;59659;41.520;23.794;2022-10-16T06:11:02;9.63;;;4.90;;
71814;SDS011;59659;41.520;23.794;2022-10-16T06:12:14;10.05;;;5.57;;
71814;SDS011;59659;41.520;23.794;2022-10-16T06:13:25;9.98;;;5.00;;
71814;SDS011;59659;41.520;23.794;2022-10-16T06:14:36;9.00;;;5.80;;
71814;SDS011;59659;41.520;23.794;2022-10-16T06:15:48;9.55;;;5.15;;
71814;SDS011;59659;41.520;23.794;2022-10-16T06:16:59;10.20;;;5.65;;
71814;SDS011;59659;41.520;23.794;2022-10-16T06:18:11;10.30;;;5.70;;
71814;SDS011;59659;41.520;23.794;2022-10-16T06:19:22;8.65;;;5.45;;
71814;SDS011;59659;41.520;23.794;2022-10-16T06:20:34;10.60;;;6.25;;
71814;SDS011;59659;41.520;23.794;2022-10-16T06:21:46;10.27;;;6.25;;
71814;SDS011;59659;41.520;23.794;2022-10-16T06:22:58;8.18;;;5.30;;
71814;SDS011;59659;41.520;23.794;2022-10-16T06:24:09;7.72;;;4.43;;
71814;SDS011;59659;41.520;23.794;2022-10-16T06:25:21;9.02;;;5.15;;
71814;SDS011;59659;41.520;23.794;2022-10-16T06:26:34;10.15;;;5.25;;
71814;SDS011;59659;41.520;23.794;2022-10-16T06:27:46;18.88;;;6.50;;
71814;SDS011;59659;41.520;23.794;2022-10-16T06:28:58;10.20;;;6.30;;
71814;SDS011;59659;41.520;23.794;2022-10-16T06:30:10;13.23;;;6.00;;
71814;SDS011;59659;41.520;23.794;2022-10-16T06:31:22;17.33;;;7.50;;
71814;SDS011;59659;41.520;23.794;2022-10-16T06:32:36;9.18;;;5.88;;
71814;SDS011;59659;41.520;23.794;2022-10-16T06:33:50;14.60;;;6.00;;
71814;SDS011;59659;41.520;23.794;2022-10-16T06:35:02;9.65;;;5.85;;
71814;SDS011;59659;41.520;23.794;2022-10-16T06:36:15;9.85;;;5.60;;
71814;SDS011;59659;41.520;23.794;2022-10-16T06:37:27;10.30;;;5.75;;
71814;SDS011;59659;41.520;23.794;2022-10-16T06:38:39;9.38;;;5.85;;
71814;SDS011;59659;41.520;23.794;2022-10-16T06:39:50;11.27;;;6.97;;
71814;SDS011;59659;41.520;23.794;2022-10-16T06:41:03;9.20;;;6.47;;
71814;SDS011;59659;41.520;23.794;2022-10-16T06:42:15;12.38;;;6.05;;
71814;SDS011;59659;41.520;23.794;2022-10-16T06:43:29;10.77;;;6.57;;
71814;SDS011;59659;41.520;23.794;2022-10-16T06:44:44;12.30;;;6.90;;
71814;SDS011;59659;41.520;23.794;2022-10-16T06:45:56;10.57;;;5.80;;
71814;SDS011;59659;41.520;23.794;2022-10-16T06:47:08;9.82;;;5.75;;
71814;SDS011;59659;41.520;23.794;2022-10-16T06:48:20;9.57;;;4.50;;
71814;SDS011;59659;41.520;23.794;2022-10-16T06:49:31;8.25;;;5.00;;
71814;SDS011;59659;41.520;23.794;2022-10-16T06:50:43;8.25;;;5.43;;
71814;SDS011;59659;41.520;23.794;2022-10-16T06:51:56;7.47;;;5.25;;
71814;SDS011;59659;41.520;23.794;2022-10-16T06:53:07;8.48;;;4.43;;
71814;SDS011;59659;41.520;23.794;2022-10-16T06:54:21;5.45;;;3.80;;
71814;SDS011;59659;41.520;23.794;2022-10-16T06:55:32;7.65;;;4.13;;
71814;SDS011;59659;41.520;23.794;2022-10-16T06:56:44;9.18;;;4.30;;
71814;SDS011;59659;41.520;23.794;2022-10-16T06:57:56;6.63;;;3.85;;
71814;SDS011;59659;41.520;23.794;2022-10-16T06:59:07;7.20;;;4.30;;
71814;SDS011;59659;41.520;23.794;2022-10-16T07:00:18;10.98;;;4.60;;
71814;SDS011;59659;41.520;23.794;2022-10-16T07:01:30;8.85;;;4.25;;
71814;SDS011;59659;41.520;23.794;2022-10-16T07:02:42;7.18;;;4.28;;
71814;SDS011;59659;41.520;23.794;2022-10-16T07:03:54;8.32;;;4.35;;
71814;SDS011;59659;41.520;23.794;2022-10-16T07:05:05;9.73;;;4.57;;
71814;SDS011;59659;41.520;23.794;2022-10-16T07:06:18;9.68;;;5.43;;
71814;SDS011;59659;41.520;23.794;2022-10-16T07:07:30;5.05;;;3.30;;
71814;SDS011;59659;41.520;23.794;2022-10-16T07:08:42;9.15;;;4.35;;
71814;SDS011;59659;41.520;23.794;2022-10-16T07:09:54;5.85;;;3.58;;
71814;SDS011;59659;41.520;23.794;2022-10-16T07:11:07;7.47;;;4.43;;
71814;SDS011;59659;41.520;23.794;2022-10-16T07:12:21;8.52;;;3.88;;
71814;SDS011;59659;41.520;23.794;2022-10-16T07:13:36;6.88;;;4.43;;
71814;SDS011;59659;41.520;23.794;2022-10-16T07:14:48;7.53;;;4.78;;
71814;SDS011;59659;41.520;23.794;2022-10-16T07:16:13;7.10;;;4.22;;
71814;SDS011;59659;41.520;23.794;2022-10-16T07:17:28;11.73;;;4.97;;
71814;SDS011;59659;41.520;23.794;2022-10-16T07:18:40;9.55;;;4.57;;
71814;SDS011;59659;41.520;23.794;2022-10-16T07:19:53;8.38;;;4.65;;
71814;SDS011;59659;41.520;23.794;2022-10-16T07:21:07;9.07;;;4.22;;
71814;SDS011;59659;41.520;23.794;2022-10-16T07:22:19;7.70;;;4.35;;
71814;SDS011;59659;41.520;23.794;2022-10-16T07:23:30;7.68;;;4.32;;
71814;SDS011;59659;41.520;23.794;2022-10-16T07:24:44;9.98;;;4.15;;
71814;SDS011;59659;41.520;23.794;2022-10-16T07:26:01;7.03;;;4.18;;
71814;SDS011;59659;41.520;23.794;2022-10-16T07:27:13;7.13;;;3.83;;
71814;SDS011;59659;41.520;23.794;2022-10-16T07:28:27;8.10;;;4.03;;